Pagina principale
METAR-TAF:

METAR-TAF

Aeroporti :

Monte Scuro, Italia

latitudine: 39-20N, longitudine: 016-24E, altezza: 1710 m

Osservazione

Il bollettino è stato emesso 25 minuti fa, alle 12:55 UTC
Vento 17 kt da ovest
Temperature 5°C
Umidità 100%
Pressione 1005 hPa
Visibilità minore di 50 m
pioggia, nebbia

METAR: LIBQ 131255Z 26017KT 0000 RA FG VV/// 05/05 Q1005 RMK MON INVIS VAL INVIS VIS MIN 0000

Ora: 14:20 (13:20 UTC)


TAF: mancante

Osservazioni e previsioni meteorologiche di più di 4000 aeroporti (messaggi METAR e TAF).

Le stazioni disponibili sono rappresentate dai dischi gialli e rossi sulla carta.

Puntare il mouse per vedere il nome della stazione.

Clicca sopra per visualizzare le osservazioni e previsioni meteorologiche.

Per cambiare la mappa : fare clic sui pulsanti verdi con una croce nera per ingrandire, il pulsante verde con un trattino per diminuire, o sulla freccia verde per le mappe adiacenti.


METAR-TAF: